Time;durP1;ratioP1;P1;durP2;ratioP2;P2;SDS_P1;SDS_P2;PMS_P1;PMS_P2;Temp;Humidity;BMP_temperature;BMP_pressure;BME280_temperature;BME280_humidity;BME280_pressure;Samples;Min_cycle;Max_cycle;Signal;HPM_P1;HPM_P2
2023/03/21 00:01:44;;;;;;;0.70;0.70;;;8.80;99.90;;;;;;5048941;28;20239;-64
2023/03/21 00:04:11;;;;;;;0.70;0.70;;;8.80;99.90;;;;;;5035281;28;20199;-64
2023/03/21 00:06:37;;;;;;;0.80;0.80;;;8.70;99.90;;;;;;5043104;28;20204;-63
2023/03/21 00:09:04;;;;;;;0.50;0.50;;;8.70;99.90;;;;;;5042234;28;20205;-64
2023/03/21 00:11:31;;;;;;;1.03;0.70;;;8.70;99.90;;;;;;5045480;28;20669;-65
2023/03/21 00:14:01;;;;;;;1.13;0.90;;;9.00;99.90;;;;;;5044128;28;20215;-63
2023/03/21 00:16:30;;;;;;;0.70;0.70;;;8.80;99.90;;;;;;5042574;28;20283;-64
2023/03/21 00:18:58;;;;;;;0.80;0.80;;;8.80;99.90;;;;;;5041343;28;20673;-63
2023/03/21 00:21:31;;;;;;;0.80;0.80;;;8.80;99.90;;;;;;5047105;28;20944;-63
2023/03/21 00:23:59;;;;;;;0.60;0.60;;;8.80;99.90;;;;;;5039097;28;20235;-64
2023/03/21 00:26:26;;;;;;;0.70;0.70;;;8.80;99.90;;;;;;5041589;28;20211;-63
2023/03/21 00:28:53;;;;;;;0.90;0.90;;;8.80;99.90;;;;;;5048435;28;20286;-64
2023/03/21 00:31:20;;;;;;;0.70;0.70;;;8.80;99.90;;;;;;5040792;28;20230;-64
2023/03/21 00:33:47;;;;;;;0.68;0.68;;;8.70;99.90;;;;;;5029999;28;20618;-64
2023/03/21 00:36:15;;;;;;;0.70;0.70;;;8.70;99.90;;;;;;5033173;28;20206;-64
2023/03/21 00:38:42;;;;;;;1.00;1.00;;;8.80;99.90;;;;;;5040130;28;20287;-64
2023/03/21 00:41:13;;;;;;;0.80;0.80;;;8.80;99.90;;;;;;5041777;28;20711;-64
2023/03/21 00:43:41;;;;;;;0.60;0.60;;;8.80;99.90;;;;;;5053834;28;20223;-64
2023/03/21 00:46:08;;;;;;;0.60;0.60;;;8.70;99.90;;;;;;5054660;28;20195;-65
2023/03/21 00:48:35;;;;;;;0.70;0.70;;;8.80;99.90;;;;;;5054411;28;20204;-63
2023/03/21 00:51:02;;;;;;;0.97;0.97;;;8.80;99.90;;;;;;5044553;28;20251;-63
2023/03/21 00:53:31;;;;;;;0.60;0.60;;;8.80;99.90;;;;;;5055677;28;20235;-63
2023/03/21 00:55:57;;;;;;;0.80;0.80;;;8.70;99.90;;;;;;5055248;28;20223;-62
2023/03/21 00:58:25;;;;;;;0.80;0.80;;;8.80;99.90;;;;;;5054372;28;20676;-63
2023/03/21 01:00:51;;;;;;;0.73;0.73;;;8.70;99.90;;;;;;5048602;28;20668;-63
2023/03/21 01:03:19;;;;;;;0.77;0.77;;;8.60;99.90;;;;;;5059571;28;20311;-63
2023/03/21 01:06:06;;;;;;;0.70;0.70;;;8.60;99.90;;;;;;5046538;28;20197;-63
2023/03/21 01:08:35;;;;;;;0.50;0.50;;;8.60;99.90;;;;;;5052007;28;20854;-63
2023/03/21 01:11:06;;;;;;;0.67;0.67;;;8.50;99.90;;;;;;5037526;28;20226;-63
2023/03/21 01:13:33;;;;;;;0.63;0.63;;;8.60;99.90;;;;;;5054242;28;20204;-63
2023/03/21 01:16:00;;;;;;;0.70;0.70;;;8.50;99.90;;;;;;5054531;28;20676;-63
2023/03/21 01:18:30;;;;;;;0.87;0.87;;;8.50;99.90;;;;;;5054054;28;20629;-64
2023/03/21 01:20:58;;;;;;;0.70;0.70;;;8.50;99.90;;;;;;5053130;28;20720;-63
2023/03/21 01:23:26;;;;;;;0.50;0.50;;;8.40;99.90;;;;;;5062694;28;20230;-65
2023/03/21 01:25:58;;;;;;;0.90;0.90;;;8.40;99.90;;;;;;5055364;28;20723;-62
2023/03/21 01:28:28;;;;;;;0.80;0.80;;;8.30;99.90;;;;;;5056142;28;20243;-63
2023/03/21 01:30:55;;;;;;;0.67;0.67;;;8.30;99.90;;;;;;5053456;28;20749;-64
2023/03/21 01:33:23;;;;;;;0.70;0.70;;;8.20;99.90;;;;;;5044327;28;20223;-64
2023/03/21 01:35:50;;;;;;;0.82;0.82;;;8.20;99.90;;;;;;5041850;28;20196;-65
2023/03/21 01:38:16;;;;;;;0.70;0.70;;;8.20;99.90;;;;;;5047487;28;20281;-62
2023/03/21 01:40:45;;;;;;;1.00;1.00;;;8.20;99.90;;;;;;5032763;28;20212;-64
2023/03/21 01:43:26;;;;;;;0.70;0.70;;;8.10;99.90;;;;;;5033482;28;20226;-63
2023/03/21 01:46:22;;;;;;;0.80;0.80;;;8.10;99.90;;;;;;5033406;28;20199;-62
2023/03/21 01:48:53;;;;;;;0.80;0.80;;;8.00;99.90;;;;;;5032774;28;20201;-63
2023/03/21 01:51:23;;;;;;;0.70;0.70;;;8.00;99.90;;;;;;5031983;28;20854;-63
2023/03/21 01:53:50;;;;;;;0.90;0.90;;;8.00;99.90;;;;;;5032771;28;20673;-63
2023/03/21 01:56:23;;;;;;;0.80;0.80;;;8.00;99.90;;;;;;5045733;28;20287;-64
2023/03/21 01:58:55;;;;;;;0.77;0.77;;;8.00;99.90;;;;;;5047183;28;20211;-64
2023/03/21 02:01:22;;;;;;;0.73;0.73;;;7.90;99.90;;;;;;5043441;28;20231;-62
2023/03/21 02:03:51;;;;;;;0.80;0.80;;;8.00;99.90;;;;;;5036432;28;20208;-62
2023/03/21 02:06:29;;;;;;;0.60;0.60;;;8.00;99.90;;;;;;5042012;28;20645;-62
2023/03/21 02:08:58;;;;;;;0.80;0.80;;;8.00;99.90;;;;;;5042013;28;20204;-64
2023/03/21 02:11:26;;;;;;;0.63;0.63;;;8.00;99.90;;;;;;5058451;28;20219;-63
2023/03/21 02:13:55;;;;;;;0.70;0.70;;;8.00;99.90;;;;;;5046189;28;20201;-66
2023/03/21 02:16:33;;;;;;;0.70;0.70;;;8.00;99.90;;;;;;5045012;28;20222;-65
2023/03/21 02:19:18;;;;;;;0.60;0.60;;;8.00;99.90;;;;;;5041385;28;20577;-63
2023/03/21 02:22:12;;;;;;;0.73;0.73;;;8.00;99.90;;;;;;5045278;28;20350;-64
2023/03/21 02:25:17;;;;;;;0.80;0.80;;;7.80;99.90;;;;;;5043665;28;20680;-64
2023/03/21 02:27:49;;;;;;;0.80;0.80;;;7.80;99.90;;;;;;5041517;28;20207;-63
2023/03/21 02:30:42;;;;;;;0.60;0.60;;;7.70;99.90;;;;;;5039250;28;20201;-65
2023/03/21 02:33:27;;;;;;;0.70;0.70;;;7.70;99.90;;;;;;5036977;28;20205;-63
2023/03/21 02:36:25;;;;;;;0.60;0.60;;;7.60;99.90;;;;;;5056163;28;20192;-64
2023/03/21 02:38:59;;;;;;;0.70;0.70;;;7.50;99.90;;;;;;5043285;28;20222;-63
2023/03/21 02:41:34;;;;;;;0.68;0.68;;;7.50;99.90;;;;;;5032214;28;20282;-63
2023/03/21 02:44:08;;;;;;;0.50;0.50;;;7.30;99.90;;;;;;5037413;28;20215;-64
2023/03/21 02:46:42;;;;;;;1.83;0.63;;;7.30;99.90;;;;;;5042110;28;20204;-63
2023/03/21 02:49:14;;;;;;;0.82;0.60;;;7.30;99.90;;;;;;5039558;28;20211;-65
2023/03/21 02:51:43;;;;;;;0.63;0.63;;;7.20;99.90;;;;;;5036098;28;20221;-64
2023/03/21 02:54:15;;;;;;;0.93;0.70;;;7.20;99.90;;;;;;5040428;28;20200;-63
2023/03/21 02:56:42;;;;;;;0.70;0.70;;;7.10;99.90;;;;;;5052749;28;20188;-65
2023/03/21 02:59:10;;;;;;;0.80;0.80;;;7.20;99.90;;;;;;5053076;28;20199;-64
2023/03/21 03:01:37;;;;;;;0.80;0.80;;;7.20;99.90;;;;;;5054689;28;20763;-64
2023/03/21 03:04:04;;;;;;;0.80;0.80;;;7.30;99.90;;;;;;5053726;28;20238;-63
2023/03/21 03:06:43;;;;;;;0.60;0.60;;;7.30;99.90;;;;;;5057204;28;20255;-64
2023/03/21 03:09:26;;;;;;;0.80;0.80;;;7.30;99.90;;;;;;5051300;28;20208;-63
2023/03/21 03:11:59;;;;;;;0.70;0.70;;;7.30;99.90;;;;;;5052317;28;20298;-63
2023/03/21 03:14:41;;;;;;;0.70;0.70;;;7.30;99.90;;;;;;5052115;28;20204;-65
2023/03/21 03:17:22;;;;;;;0.77;0.77;;;7.30;99.90;;;;;;5048676;28;20288;-65
2023/03/21 03:20:09;;;;;;;1.20;0.80;;;7.30;99.90;;;;;;5041344;28;20211;-65
2023/03/21 03:22:42;;;;;;;0.77;0.77;;;7.30;99.90;;;;;;5051688;28;20242;-64
2023/03/21 03:25:14;;;;;;;0.70;0.70;;;7.30;99.90;;;;;;5054871;28;20274;-64
2023/03/21 03:27:43;;;;;;;0.67;0.67;;;7.20;99.90;;;;;;5055833;28;20205;-64
2023/03/21 03:30:12;;;;;;;0.80;0.80;;;7.20;99.90;;;;;;5053793;28;20272;-63
2023/03/21 03:32:44;;;;;;;0.87;0.87;;;7.10;99.90;;;;;;5056362;28;20543;-64
2023/03/21 03:35:14;;;;;;;0.77;0.77;;;7.10;99.90;;;;;;5047746;28;20277;-64
2023/03/21 03:37:42;;;;;;;0.77;0.77;;;7.10;99.90;;;;;;5039209;28;20675;-63
2023/03/21 03:40:15;;;;;;;0.73;0.73;;;7.00;99.90;;;;;;5038660;28;20204;-64
2023/03/21 03:42:46;;;;;;;0.97;0.70;;;7.00;99.90;;;;;;5048956;28;20262;-64
2023/03/21 03:45:13;;;;;;;0.60;0.60;;;7.10;99.90;;;;;;5051036;28;20214;-63
2023/03/21 03:47:44;;;;;;;0.70;0.70;;;7.10;99.90;;;;;;5051414;28;20221;-64
2023/03/21 03:50:19;;;;;;;0.90;0.90;;;7.10;99.90;;;;;;5050194;28;20200;-65
2023/03/21 03:52:49;;;;;;;0.83;0.83;;;7.10;99.90;;;;;;5050754;28;20215;-64
2023/03/21 03:55:20;;;;;;;0.90;0.90;;;7.20;99.90;;;;;;5051078;28;20230;-63
2023/03/21 03:57:47;;;;;;;1.13;0.80;;;7.20;99.90;;;;;;5051148;28;20208;-64
2023/03/21 04:00:16;;;;;;;0.60;0.60;;;7.10;99.90;;;;;;5046970;28;20208;-63
2023/03/21 04:02:43;;;;;;;0.80;0.80;;;7.10;99.90;;;;;;5050370;28;20597;-63
2023/03/21 04:05:10;;;;;;;0.73;0.73;;;7.00;99.90;;;;;;5050907;28;20231;-64
2023/03/21 04:07:37;;;;;;;0.77;0.77;;;7.00;99.90;;;;;;5051096;28;20203;-65
2023/03/21 04:10:05;;;;;;;0.80;0.80;;;7.00;99.90;;;;;;5050408;28;20207;-65
2023/03/21 04:12:33;;;;;;;0.70;0.70;;;7.00;99.90;;;;;;5050679;28;20224;-64
2023/03/21 04:15:00;;;;;;;0.70;0.70;;;7.00;99.90;;;;;;5057434;28;20226;-64
2023/03/21 04:17:27;;;;;;;0.70;0.70;;;7.00;99.90;;;;;;5054949;28;20323;-65
2023/03/21 04:19:54;;;;;;;0.73;0.73;;;7.00;99.90;;;;;;5050922;28;20227;-63
2023/03/21 04:22:21;;;;;;;0.70;0.70;;;7.00;99.90;;;;;;5050863;28;20318;-63
2023/03/21 04:24:48;;;;;;;0.57;0.57;;;7.00;99.90;;;;;;5051037;28;20219;-65
2023/03/21 04:27:14;;;;;;;0.63;0.63;;;7.00;99.90;;;;;;5051293;28;20270;-63
2023/03/21 04:29:43;;;;;;;0.70;0.70;;;6.90;99.90;;;;;;5046270;28;20292;-63
2023/03/21 04:32:15;;;;;;;0.60;0.60;;;6.90;99.90;;;;;;5050413;28;20238;-64
2023/03/21 04:34:42;;;;;;;0.60;0.60;;;6.90;99.90;;;;;;5050887;28;20204;-64
2023/03/21 04:37:10;;;;;;;0.80;0.80;;;6.90;99.90;;;;;;5050474;28;20207;-64
2023/03/21 04:39:37;;;;;;;0.63;0.63;;;6.80;99.90;;;;;;5049803;28;20207;-63
2023/03/21 04:42:05;;;;;;;0.70;0.70;;;6.80;99.90;;;;;;5050655;28;20220;-64
2023/03/21 04:44:31;;;;;;;0.60;0.60;;;6.80;99.90;;;;;;5050581;28;20227;-63
2023/03/21 04:47:00;;;;;;;0.70;0.70;;;6.80;99.90;;;;;;5050452;28;20207;-63
2023/03/21 04:49:26;;;;;;;0.70;0.70;;;6.70;99.90;;;;;;5049780;28;20200;-63
2023/03/21 04:51:53;;;;;;;0.70;0.70;;;6.70;99.90;;;;;;5050387;28;20230;-65
2023/03/21 04:54:21;;;;;;;0.90;0.90;;;6.70;99.90;;;;;;5050691;28;20200;-64
2023/03/21 04:56:48;;;;;;;0.60;0.60;;;6.60;99.90;;;;;;5050085;28;20200;-64
2023/03/21 04:59:16;;;;;;;0.70;0.70;;;6.70;99.90;;;;;;5049705;28;20682;-65
2023/03/21 05:01:43;;;;;;;1.70;0.80;;;6.60;99.90;;;;;;5049695;28;20228;-63
2023/03/21 05:04:13;;;;;;;0.70;0.70;;;6.60;99.90;;;;;;5050108;28;20224;-64
2023/03/21 05:06:41;;;;;;;0.80;0.80;;;6.60;99.90;;;;;;5050890;28;20210;-63
2023/03/21 05:09:08;;;;;;;1.30;0.90;;;6.60;99.90;;;;;;5049475;28;20203;-62
2023/03/21 05:11:37;;;;;;;0.70;0.70;;;6.60;99.90;;;;;;5049940;28;20238;-63
2023/03/21 05:14:04;;;;;;;0.60;0.60;;;6.60;99.90;;;;;;5050254;28;20200;-64
2023/03/21 05:16:33;;;;;;;0.60;0.60;;;6.60;99.90;;;;;;5050674;28;20204;-63
2023/03/21 05:19:03;;;;;;;0.60;0.60;;;6.70;99.90;;;;;;5050393;28;20204;-63
2023/03/21 05:21:40;;;;;;;0.80;0.80;;;6.60;99.90;;;;;;5049663;28;20783;-64
2023/03/21 05:24:11;;;;;;;0.87;0.87;;;6.70;99.90;;;;;;5050143;28;20286;-64
2023/03/21 05:26:38;;;;;;;0.73;0.73;;;6.70;99.90;;;;;;5050322;28;20597;-64
2023/03/21 05:29:05;;;;;;;0.70;0.70;;;6.70;99.90;;;;;;5053773;28;20204;-65
2023/03/21 05:31:33;;;;;;;2.27;0.90;;;6.70;99.90;;;;;;5051852;28;20224;-63
2023/03/21 05:33:59;;;;;;;1.23;1.00;;;6.70;99.90;;;;;;5053303;28;20200;-64
2023/03/21 05:36:26;;;;;;;1.00;1.00;;;6.70;99.90;;;;;;5052946;28;20287;-63
2023/03/21 05:38:54;;;;;;;1.10;1.10;;;6.70;99.90;;;;;;5053530;28;20208;-64
2023/03/21 05:41:21;;;;;;;0.93;0.93;;;6.70;99.90;;;;;;5052290;28;20223;-64
2023/03/21 05:43:48;;;;;;;1.00;1.00;;;6.60;99.90;;;;;;5053416;28;20310;-63
2023/03/21 05:46:15;;;;;;;0.90;0.90;;;6.60;99.90;;;;;;5053863;28;20208;-63
2023/03/21 05:48:41;;;;;;;0.83;0.83;;;6.70;99.90;;;;;;5051961;28;20208;-64
2023/03/21 05:51:08;;;;;;;1.00;1.00;;;6.60;99.90;;;;;;5049920;28;20220;-65
2023/03/21 05:53:35;;;;;;;0.90;0.90;;;6.70;99.90;;;;;;5052456;28;20214;-64
2023/03/21 05:56:04;;;;;;;0.80;0.80;;;6.60;99.90;;;;;;5056854;28;20269;-64
2023/03/21 05:58:30;;;;;;;0.90;0.90;;;6.70;99.90;;;;;;5056407;28;20218;-64
2023/03/21 06:00:57;;;;;;;0.80;0.80;;;6.60;99.90;;;;;;5051866;28;20232;-64
2023/03/21 06:03:24;;;;;;;1.10;1.00;;;6.70;99.90;;;;;;5052627;28;20214;-64
2023/03/21 06:05:51;;;;;;;0.63;0.63;;;6.70;99.90;;;;;;5053826;28;20228;-63
2023/03/21 06:08:18;;;;;;;1.23;0.90;;;6.70;99.90;;;;;;5053975;28;20207;-63
2023/03/21 06:10:45;;;;;;;0.90;0.90;;;6.80;99.90;;;;;;5052927;28;20223;-64
2023/03/21 06:13:14;;;;;;;3.10;0.90;;;6.90;99.90;;;;;;5054358;28;20290;-64
2023/03/21 06:15:41;;;;;;;1.10;1.10;;;6.90;99.90;;;;;;5055888;28;20674;-64
2023/03/21 06:18:08;;;;;;;0.90;0.90;;;7.00;99.90;;;;;;5055790;28;20291;-65
2023/03/21 06:20:35;;;;;;;0.80;0.80;;;7.00;99.90;;;;;;5054529;28;20204;-64
2023/03/21 06:23:02;;;;;;;1.00;1.00;;;7.10;99.90;;;;;;5050823;28;20215;-64
2023/03/21 06:25:29;;;;;;;0.90;0.90;;;7.20;99.90;;;;;;5053928;28;20230;-64
2023/03/21 06:27:56;;;;;;;0.73;0.73;;;7.20;99.90;;;;;;5048323;28;20208;-64
2023/03/21 06:30:25;;;;;;;0.60;0.60;;;7.30;99.90;;;;;;5046208;28;20287;-63
2023/03/21 06:32:52;;;;;;;0.80;0.80;;;7.50;99.90;;;;;;5046712;28;20213;-64
2023/03/21 06:35:19;;;;;;;0.60;0.60;;;7.60;99.90;;;;;;5043245;28;20231;-63
2023/03/21 06:37:48;;;;;;;0.60;0.60;;;7.70;99.90;;;;;;5049251;28;20204;-64
2023/03/21 06:40:15;;;;;;;0.63;0.63;;;7.80;99.90;;;;;;5045764;28;20669;-63
2023/03/21 06:42:42;;;;;;;0.93;0.70;;;8.20;99.90;;;;;;5048995;28;20904;-65
2023/03/21 06:45:10;;;;;;;0.70;0.70;;;8.00;99.90;;;;;;5052791;28;20306;-64
2023/03/21 06:47:38;;;;;;;0.77;0.77;;;8.10;99.90;;;;;;5046044;28;20208;-64
2023/03/21 06:50:06;;;;;;;0.87;0.87;;;8.20;99.90;;;;;;5029472;28;20205;-64
2023/03/21 06:52:33;;;;;;;0.90;0.90;;;8.30;99.90;;;;;;5031638;28;20231;-63
2023/03/21 06:54:59;;;;;;;0.80;0.80;;;8.40;99.90;;;;;;5052005;28;20200;-64
2023/03/21 06:57:26;;;;;;;0.90;0.90;;;8.50;99.90;;;;;;5050493;28;20196;-64
2023/03/21 06:59:53;;;;;;;1.50;0.93;;;8.60;99.90;;;;;;5048939;28;20200;-63
2023/03/21 07:02:20;;;;;;;0.80;0.80;;;8.70;99.90;;;;;;5050127;28;20742;-65
2023/03/21 07:04:48;;;;;;;0.90;0.90;;;8.80;99.90;;;;;;5050391;28;20231;-65
2023/03/21 07:07:15;;;;;;;0.80;0.80;;;8.80;99.90;;;;;;5041232;28;20207;-65
2023/03/21 07:09:42;;;;;;;1.50;0.70;;;8.90;99.90;;;;;;5040624;28;20203;-63
2023/03/21 07:12:09;;;;;;;0.90;0.90;;;8.90;99.90;;;;;;5030088;28;20310;-64
2023/03/21 07:14:36;;;;;;;0.80;0.80;;;9.00;99.90;;;;;;5030234;28;20251;-63
2023/03/21 07:17:03;;;;;;;0.90;0.90;;;9.00;99.90;;;;;;5032873;28;20658;-64
2023/03/21 07:19:30;;;;;;;0.80;0.80;;;9.10;99.90;;;;;;5042136;28;20211;-64
2023/03/21 07:21:59;;;;;;;0.60;0.60;;;9.10;99.90;;;;;;5050496;28;20219;-62
2023/03/21 07:24:26;;;;;;;1.33;0.70;;;9.20;99.90;;;;;;5062642;28;20220;-65
2023/03/21 07:26:53;;;;;;;0.70;0.70;;;9.30;99.90;;;;;;5071462;28;20218;-64
2023/03/21 07:29:22;;;;;;;1.00;0.87;;;9.40;99.90;;;;;;5069890;28;20199;-63
2023/03/21 07:31:49;;;;;;;0.70;0.70;;;9.50;99.90;;;;;;5070840;28;20297;-63
2023/03/21 07:34:17;;;;;;;1.00;0.90;;;9.60;99.90;;;;;;5073913;28;20227;-63
2023/03/21 07:36:44;;;;;;;0.90;0.90;;;9.70;99.90;;;;;;5077966;28;20191;-64
2023/03/21 07:39:12;;;;;;;0.83;0.83;;;9.80;99.90;;;;;;5049510;28;20220;-63
2023/03/21 07:41:39;;;;;;;0.87;0.70;;;9.90;99.90;;;;;;5053182;28;20226;-63
2023/03/21 07:44:06;;;;;;;0.80;0.80;;;10.00;99.90;;;;;;5063779;28;20199;-63
2023/03/21 07:46:33;;;;;;;0.70;0.70;;;10.00;99.90;;;;;;5072207;28;20698;-63
2023/03/21 07:49:00;;;;;;;0.70;0.70;;;10.10;99.90;;;;;;5071160;28;20207;-63
2023/03/21 07:51:26;;;;;;;0.73;0.73;;;10.20;99.90;;;;;;5070487;28;20291;-63
2023/03/21 07:53:53;;;;;;;0.60;0.60;;;10.30;99.90;;;;;;5071274;28;20207;-64
2023/03/21 07:56:21;;;;;;;0.70;0.70;;;10.40;99.90;;;;;;5070776;28;20210;-64
2023/03/21 07:58:48;;;;;;;0.70;0.70;;;10.50;99.90;;;;;;5071159;28;20203;-64
2023/03/21 08:01:15;;;;;;;0.70;0.70;;;10.60;99.90;;;;;;5070975;28;20225;-64
2023/03/21 08:03:42;;;;;;;0.70;0.70;;;10.80;99.90;;;;;;5071714;28;20206;-63
2023/03/21 08:06:10;;;;;;;0.70;0.70;;;10.90;99.90;;;;;;5071306;28;20607;-64
2023/03/21 08:08:36;;;;;;;0.87;0.73;;;11.10;99.90;;;;;;5071298;28;20207;-63
2023/03/21 08:11:04;;;;;;;0.80;0.80;;;11.20;99.90;;;;;;5070562;28;20229;-64
2023/03/21 08:13:32;;;;;;;0.80;0.80;;;11.30;99.90;;;;;;5071425;28;20207;-62
2023/03/21 08:15:59;;;;;;;0.70;0.70;;;11.40;99.90;;;;;;5071270;28;20209;-63
2023/03/21 08:18:26;;;;;;;0.90;0.90;;;11.50;99.90;;;;;;5071475;28;20297;-64
2023/03/21 08:20:54;;;;;;;0.90;0.90;;;11.50;99.90;;;;;;5070042;28;20227;-62
2023/03/21 08:23:21;;;;;;;0.60;0.60;;;11.50;99.90;;;;;;5071046;28;20290;-63
2023/03/21 08:25:51;;;;;;;1.03;0.70;;;11.40;99.90;;;;;;5071049;28;20249;-64
2023/03/21 08:28:18;;;;;;;0.63;0.63;;;11.40;99.90;;;;;;5071164;28;20210;-64
2023/03/21 08:30:47;;;;;;;0.77;0.77;;;11.40;99.90;;;;;;5070367;28;20322;-63
2023/03/21 08:33:14;;;;;;;0.70;0.70;;;11.50;99.90;;;;;;5071310;28;20210;-63
2023/03/21 08:35:41;;;;;;;0.70;0.70;;;11.60;99.90;;;;;;5071044;28;20209;-63
2023/03/21 08:38:08;;;;;;;0.73;0.73;;;11.60;99.90;;;;;;5071089;28;20207;-64
2023/03/21 08:40:35;;;;;;;0.90;0.90;;;11.70;99.90;;;;;;5070244;28;20310;-63
2023/03/21 08:43:02;;;;;;;1.00;1.00;;;11.70;99.90;;;;;;5071026;28;20679;-63
2023/03/21 08:45:29;;;;;;;0.90;0.90;;;11.80;99.90;;;;;;5071049;28;20247;-62
2023/03/21 08:47:57;;;;;;;1.33;1.23;;;11.90;99.90;;;;;;5070779;28;20211;-63
2023/03/21 08:50:28;;;;;;;0.83;0.83;;;11.90;99.90;;;;;;5069611;28;20313;-62
2023/03/21 08:52:55;;;;;;;0.73;0.73;;;11.80;99.90;;;;;;5070795;28;20211;-65
2023/03/21 08:55:22;;;;;;;0.90;0.90;;;11.90;99.90;;;;;;5070846;28;20205;-63
2023/03/21 08:57:49;;;;;;;0.93;0.93;;;11.90;99.90;;;;;;5070700;28;20439;-64
2023/03/21 09:00:19;;;;;;;0.93;0.93;;;11.90;99.90;;;;;;5069940;28;20207;-64
2023/03/21 09:02:50;;;;;;;0.90;0.90;;;12.00;99.90;;;;;;5072235;28;20338;-64
2023/03/21 09:05:19;;;;;;;0.70;0.70;;;12.10;99.90;;;;;;5074536;28;20223;-63
2023/03/21 09:07:45;;;;;;;0.70;0.70;;;12.10;99.90;;;;;;5074888;28;20203;-63
2023/03/21 09:10:15;;;;;;;0.60;0.60;;;12.10;99.90;;;;;;5073750;28;20207;-63
2023/03/21 09:12:42;;;;;;;1.00;1.00;;;12.10;99.90;;;;;;5074384;28;20309;-63
2023/03/21 09:15:10;;;;;;;0.97;0.97;;;12.10;99.90;;;;;;5075212;28;20679;-63
2023/03/21 09:17:40;;;;;;;0.93;0.93;;;12.20;99.90;;;;;;5077694;28;20290;-64
2023/03/21 09:20:10;;;;;;;1.03;1.03;;;12.20;99.90;;;;;;5074736;28;20211;-64
2023/03/21 09:22:38;;;;;;;1.00;1.00;;;12.20;99.90;;;;;;5073153;28;20616;-64
2023/03/21 09:25:10;;;;;;;0.93;0.93;;;12.10;99.90;;;;;;5074713;28;20588;-63
2023/03/21 09:27:37;;;;;;;1.57;1.30;;;12.20;99.90;;;;;;5078370;28;20209;-63
2023/03/21 09:30:06;;;;;;;0.93;0.93;;;12.20;99.90;;;;;;5083110;28;20207;-64
2023/03/21 09:32:33;;;;;;;1.10;1.10;;;12.30;99.90;;;;;;5081913;28;20264;-64
2023/03/21 09:35:00;;;;;;;1.00;1.00;;;12.30;99.90;;;;;;5083333;28;20237;-64
2023/03/21 09:37:27;;;;;;;0.80;0.80;;;12.40;99.90;;;;;;5083384;28;20219;-64
2023/03/21 09:39:57;;;;;;;0.90;0.90;;;12.40;99.90;;;;;;5074308;28;20200;-64
2023/03/21 09:42:36;;;;;;;0.73;0.73;;;12.50;99.90;;;;;;5073870;28;20230;-63
2023/03/21 09:45:11;;;;;;;1.00;1.00;;;12.60;99.90;;;;;;5074376;28;20223;-64
2023/03/21 09:47:44;;;;;;;0.70;0.70;;;12.90;99.90;;;;;;5073924;28;20217;-64
2023/03/21 09:50:16;;;;;;;0.83;0.83;;;13.00;99.90;;;;;;5073260;28;20211;-65
2023/03/21 09:52:46;;;;;;;1.00;1.00;;;13.10;99.90;;;;;;5073909;28;20227;-64
2023/03/21 09:55:20;;;;;;;0.80;0.70;;;13.30;99.90;;;;;;5073923;28;20286;-64
2023/03/21 09:57:50;;;;;;;1.10;1.00;;;13.60;99.90;;;;;;5075875;28;20214;-64
2023/03/21 10:00:24;;;;;;;0.90;0.90;;;13.80;99.90;;;;;;5073540;28;20203;-64
2023/03/21 10:02:52;;;;;;;1.17;1.07;;;13.90;99.90;;;;;;5073646;28;20219;-63
2023/03/21 10:05:21;;;;;;;0.80;0.80;;;14.00;99.90;;;;;;5073486;28;20231;-65
2023/03/21 10:07:54;;;;;;;0.80;0.80;;;14.00;99.90;;;;;;5080214;28;20214;-63
2023/03/21 10:10:27;;;;;;;0.80;0.80;;;14.00;99.90;;;;;;5073567;28;20617;-63
2023/03/21 10:12:55;;;;;;;0.83;0.83;;;13.90;99.90;;;;;;5073212;28;20207;-64
2023/03/21 10:15:24;;;;;;;0.80;0.80;;;13.90;99.90;;;;;;5074880;28;20203;-64
2023/03/21 10:17:58;;;;;;;0.80;0.80;;;14.10;99.90;;;;;;5075890;28;20217;-63
2023/03/21 10:20:27;;;;;;;0.80;0.80;;;14.20;99.90;;;;;;5072345;28;20733;-63
2023/03/21 10:22:56;;;;;;;0.80;0.80;;;14.30;99.90;;;;;;5074030;28;20203;-63
2023/03/21 10:25:30;;;;;;;0.83;0.83;;;14.40;99.90;;;;;;5075082;28;20255;-64
2023/03/21 10:27:57;;;;;;;0.80;0.80;;;14.50;99.90;;;;;;5074678;28;20708;-64
2023/03/21 10:30:35;;;;;;;0.90;0.90;;;14.50;99.90;;;;;;5072722;28;20231;-64
2023/03/21 10:33:08;;;;;;;0.70;0.70;;;14.40;99.90;;;;;;5073115;28;20218;-64
2023/03/21 10:35:38;;;;;;;0.70;0.70;;;14.50;99.90;;;;;;5073072;28;20203;-63
2023/03/21 10:38:06;;;;;;;0.70;0.70;;;14.70;99.90;;;;;;5073408;28;20206;-64
2023/03/21 10:40:35;;;;;;;0.80;0.80;;;14.90;99.90;;;;;;5072066;28;20668;-63
2023/03/21 10:43:29;;;;;;;0.80;0.80;;;14.90;99.90;;;;;;5072994;28;20753;-64
2023/03/21 10:45:57;;;;;;;0.70;0.70;;;15.10;99.90;;;;;;5073211;28;20314;-63
2023/03/21 10:48:25;;;;;;;0.70;0.70;;;15.20;99.90;;;;;;5073081;28;20770;-64
2023/03/21 10:50:54;;;;;;;0.80;0.80;;;15.40;99.90;;;;;;5072105;28;20318;-63
2023/03/21 10:53:27;;;;;;;0.67;0.67;;;15.70;99.90;;;;;;5073794;28;20199;-64
2023/03/21 10:55:57;;;;;;;0.90;0.90;;;15.80;99.90;;;;;;5074713;28;20217;-64
2023/03/21 10:58:28;;;;;;;0.70;0.70;;;15.90;99.90;;;;;;5077925;28;20272;-64
2023/03/21 11:00:57;;;;;;;1.40;0.90;;;15.80;99.90;;;;;;5074068;28;20229;-64
2023/03/21 11:03:30;;;;;;;0.60;0.60;;;15.60;99.90;;;;;;5072258;28;20214;-64
2023/03/21 11:06:01;;;;;;;0.60;0.60;;;15.70;99.90;;;;;;5072925;28;20246;-64
2023/03/21 11:08:29;;;;;;;0.70;0.70;;;16.00;99.90;;;;;;5072682;28;20216;-64
2023/03/21 11:11:02;;;;;;;0.60;0.60;;;16.50;99.90;;;;;;5071568;28;20263;-64
2023/03/21 11:13:36;;;;;;;0.60;0.60;;;16.60;99.90;;;;;;5072006;28;20211;-64
2023/03/21 11:16:07;;;;;;;0.70;0.70;;;16.70;99.90;;;;;;5072070;28;20211;-64
2023/03/21 11:18:41;;;;;;;0.70;0.70;;;16.70;99.90;;;;;;5072473;28;20211;-65
2023/03/21 11:21:10;;;;;;;0.70;0.70;;;16.70;99.90;;;;;;5071735;28;20223;-63
2023/03/21 11:23:42;;;;;;;0.80;0.80;;;16.60;99.90;;;;;;5072220;28;20213;-63
2023/03/21 11:26:16;;;;;;;0.70;0.70;;;16.70;99.90;;;;;;5072344;28;20276;-63
2023/03/21 11:28:44;;;;;;;0.70;0.70;;;16.80;99.90;;;;;;5071959;28;20217;-64
2023/03/21 11:31:12;;;;;;;0.77;0.77;;;17.00;99.90;;;;;;5071811;28;20449;-64
2023/03/21 11:33:43;;;;;;;0.60;0.60;;;17.10;99.90;;;;;;5072230;28;20381;-64
2023/03/21 11:36:32;;;;;;;0.80;0.80;;;17.10;99.90;;;;;;5072921;28;20548;-64
2023/03/21 11:39:02;;;;;;;0.50;0.50;;;17.20;99.90;;;;;;5077552;28;20207;-64
2023/03/21 11:41:32;;;;;;;0.70;0.70;;;17.10;99.90;;;;;;5088584;28;20258;-65
2023/03/21 11:44:00;;;;;;;0.77;0.77;;;17.20;99.90;;;;;;5089427;28;20221;-65
2023/03/21 11:46:29;;;;;;;0.83;0.83;;;17.30;99.90;;;;;;5087653;28;20287;-64
2023/03/21 11:48:57;;;;;;;0.47;0.47;;;17.40;99.90;;;;;;5086861;28;20294;-64
2023/03/21 11:51:39;;;;;;;0.80;0.80;;;17.20;99.90;;;;;;5072687;28;20227;-65
2023/03/21 11:54:11;;;;;;;0.40;0.40;;;17.10;99.90;;;;;;5072212;28;20758;-63
2023/03/21 11:56:44;;;;;;;0.80;0.80;;;17.40;99.90;;;;;;5072757;28;20559;-64
2023/03/21 11:59:38;;;;;;;0.70;0.70;;;17.30;99.90;;;;;;5071778;28;20667;-64
2023/03/21 12:02:26;;;;;;;0.60;0.60;;;17.30;99.90;;;;;;5071348;28;20235;-64
2023/03/21 12:04:57;;;;;;;1.27;0.73;;;17.40;99.90;;;;;;5075582;28;20686;-64
2023/03/21 12:07:40;;;;;;;0.77;0.77;;;17.50;99.90;;;;;;5078451;28;20294;-65
2023/03/21 12:10:32;;;;;;;0.83;0.73;;;17.70;99.90;;;;;;5073954;28;20203;-64
2023/03/21 12:13:13;;;;;;;0.70;0.70;;;17.80;99.90;;;;;;5076884;28;20211;-64
2023/03/21 12:15:46;;;;;;;1.00;1.00;;;17.90;99.90;;;;;;5073520;28;20226;-64
2023/03/21 12:18:25;;;;;;;0.70;0.70;;;17.80;99.90;;;;;;5072095;28;20214;-64
2023/03/21 12:20:54;;;;;;;0.70;0.70;;;18.00;99.90;;;;;;5069001;28;20241;-64
2023/03/21 12:23:42;;;;;;;1.13;0.80;;;17.90;99.90;;;;;;5070986;28;20695;-64
2023/03/21 12:26:22;;;;;;;0.60;0.60;;;17.90;99.90;;;;;;5070951;28;20229;-64
2023/03/21 12:29:10;;;;;;;0.70;0.70;;;18.00;99.90;;;;;;5071466;28;20679;-65
2023/03/21 12:31:51;;;;;;;0.80;0.80;;;17.90;99.90;;;;;;5072047;28;20234;-65
2023/03/21 12:34:31;;;;;;;0.90;0.90;;;17.80;99.90;;;;;;5072557;28;20585;-64
2023/03/21 12:37:07;;;;;;;0.80;0.80;;;17.70;99.90;;;;;;5081087;28;20199;-65
2023/03/21 12:39:36;;;;;;;0.80;0.80;;;17.70;99.90;;;;;;5092234;28;20306;-64
2023/03/21 12:42:19;;;;;;;0.60;0.60;;;17.70;99.90;;;;;;5079490;28;20233;-65
2023/03/21 12:44:54;;;;;;;1.00;1.00;;;17.70;99.90;;;;;;5070981;28;20345;-64
2023/03/21 12:47:24;;;;;;;0.73;0.73;;;17.70;99.90;;;;;;5070554;28;20317;-65
2023/03/21 12:49:56;;;;;;;0.77;0.77;;;17.70;99.90;;;;;;5069783;28;20309;-64
2023/03/21 12:52:26;;;;;;;0.60;0.60;;;17.60;99.90;;;;;;5071362;28;20696;-63
2023/03/21 12:54:58;;;;;;;0.73;0.73;;;17.70;99.90;;;;;;5072030;28;20572;-65
2023/03/21 12:57:29;;;;;;;0.80;0.80;;;17.60;99.90;;;;;;5070465;28;20207;-64
2023/03/21 13:00:09;;;;;;;0.80;0.80;;;17.70;99.90;;;;;;5069766;28;20203;-64
2023/03/21 13:02:40;;;;;;;0.63;0.60;;;17.70;99.90;;;;;;5070248;28;20288;-64
2023/03/21 13:05:17;;;;;;;0.60;0.60;;;17.70;99.90;;;;;;5070499;28;20214;-65
2023/03/21 13:07:49;;;;;;;0.60;0.60;;;17.80;99.90;;;;;;5069799;28;20219;-65
2023/03/21 13:10:19;;;;;;;0.70;0.70;;;17.70;99.90;;;;;;5062982;28;20227;-65